createdAt,value
2023-01-15T00:00:37.926Z,41.45
2023-01-15T00:03:07.173Z,41.25
2023-01-15T00:05:39.391Z,41.95
2023-01-15T00:08:08.701Z,42.97
2023-01-15T00:10:38.349Z,42.53
2023-01-15T00:13:07.582Z,41.28
2023-01-15T00:15:37.245Z,43.28
2023-01-15T00:18:06.864Z,41.80
2023-01-15T00:20:36.035Z,40.97
2023-01-15T00:23:05.224Z,42.00
2023-01-15T00:26:12.656Z,44.85
2023-01-15T00:28:42.012Z,48.25
2023-01-15T00:31:11.271Z,55.28
2023-01-15T00:33:40.533Z,62.08
2023-01-15T00:36:10.281Z,61.80
2023-01-15T00:38:39.711Z,60.22
2023-01-15T00:41:08.829Z,59.50
2023-01-15T00:43:38.038Z,63.40
2023-01-15T00:46:09.532Z,61.13
2023-01-15T00:48:39.198Z,67.28
2023-01-15T00:51:08.614Z,74.25
2023-01-15T00:53:37.820Z,83.38
2023-01-15T00:56:07.474Z,85.07
2023-01-15T00:58:36.672Z,86.07
2023-01-15T01:01:06.165Z,81.65
2023-01-15T01:03:35.599Z,79.25
2023-01-15T01:06:06.285Z,72.13
2023-01-15T01:08:35.390Z,65.95
2023-01-15T01:11:16.688Z,54.78
2023-01-15T01:13:47.511Z,51.58
2023-01-15T01:16:22.805Z,47.33
2023-01-15T01:18:52.287Z,43.70
2023-01-15T01:21:21.546Z,42.80
2023-01-15T01:23:50.924Z,41.25
2023-01-15T01:26:20.213Z,35.35
2023-01-15T01:28:55.844Z,41.38
2023-01-15T01:31:25.891Z,42.53
2023-01-15T01:33:58.751Z,46.17
2023-01-15T01:36:38.565Z,79.03
2023-01-15T01:39:13.528Z,38.10
2023-01-15T01:41:42.657Z,35.75
2023-01-15T01:44:36.425Z,35.28
2023-01-15T01:47:11.198Z,34.00
2023-01-15T01:49:41.898Z,33.92
2023-01-15T01:52:17.412Z,34.55
2023-01-15T01:54:50.596Z,32.95
2023-01-15T01:57:22.211Z,35.78
2023-01-15T01:59:52.262Z,33.97
2023-01-15T02:02:24.836Z,34.30
2023-01-15T02:04:54.594Z,34.05
2023-01-15T02:07:23.730Z,36.83
2023-01-15T02:09:52.830Z,36.50
2023-01-15T02:12:35.095Z,34.17
2023-01-15T02:15:10.903Z,31.15
2023-01-15T02:18:02.795Z,29.75
2023-01-15T02:20:38.147Z,27.58
2023-01-15T02:23:39.961Z,26.70
2023-01-15T02:26:30.244Z,27.13
2023-01-15T02:29:02.373Z,27.83
2023-01-15T02:31:44.201Z,26.15
2023-01-15T02:34:37.687Z,24.92
2023-01-15T02:37:16.283Z,24.52
2023-01-15T02:39:49.232Z,26.58
2023-01-15T02:42:22.767Z,26.15
2023-01-15T02:44:56.108Z,25.88
2023-01-15T02:47:32.894Z,25.65
2023-01-15T02:50:09.903Z,24.35
2023-01-15T02:52:50.677Z,23.88
2023-01-15T02:55:35.440Z,22.20
2023-01-15T02:58:11.488Z,20.20
2023-01-15T03:00:47.283Z,21.05
2023-01-15T03:03:46.819Z,22.77
2023-01-15T03:06:18.700Z,21.65
2023-01-15T03:08:48.442Z,20.15
2023-01-15T03:11:21.305Z,21.63
2023-01-15T03:14:00.306Z,20.65
2023-01-15T03:16:46.010Z,21.33
2023-01-15T03:19:57.730Z,20.67
2023-01-15T03:22:37.139Z,19.25
2023-01-15T03:25:20.400Z,17.80
2023-01-15T03:27:49.639Z,18.33
2023-01-15T03:30:24.216Z,17.30
2023-01-15T03:32:55.822Z,18.05
2023-01-15T03:36:01.949Z,18.00
2023-01-15T03:38:38.700Z,18.83
2023-01-15T03:41:28.944Z,18.23
2023-01-15T03:44:27.101Z,18.33
2023-01-15T03:50:17.667Z,17.98
2023-01-15T03:53:08.689Z,14.98
2023-01-15T03:56:10.484Z,16.75
2023-01-15T03:58:57.283Z,15.10
2023-01-15T04:01:43.517Z,14.95
2023-01-15T04:04:16.217Z,14.52
2023-01-15T04:06:52.087Z,12.80
2023-01-15T04:09:22.927Z,13.32
2023-01-15T04:11:52.042Z,13.30
2023-01-15T04:14:21.148Z,12.70
2023-01-15T04:16:50.375Z,13.68
2023-01-15T04:19:19.688Z,12.63
2023-01-15T04:21:52.790Z,12.75
2023-01-15T04:24:21.939Z,13.38
2023-01-15T04:26:52.867Z,11.18
2023-01-15T04:29:22.351Z,11.25
2023-01-15T04:31:54.565Z,11.65
2023-01-15T04:34:23.842Z,12.32
2023-01-15T04:36:53.323Z,11.75
2023-01-15T04:39:22.970Z,10.07
2023-01-15T04:42:10.188Z,10.45
2023-01-15T04:44:40.103Z,10.52
2023-01-15T04:47:10.058Z,10.63
2023-01-15T04:49:39.308Z,9.23
2023-01-15T04:52:08.798Z,8.05
2023-01-15T04:54:38.089Z,9.80
2023-01-15T04:57:07.343Z,7.45
2023-01-15T04:59:36.558Z,8.60
2023-01-15T05:02:06.854Z,9.20
2023-01-15T05:04:37.119Z,8.60
2023-01-15T05:07:07.566Z,8.43
2023-01-15T05:09:36.867Z,9.05
2023-01-15T05:12:06.503Z,8.70
2023-01-15T05:14:35.653Z,8.10
2023-01-15T05:17:04.747Z,8.82
2023-01-15T05:19:33.866Z,8.05
2023-01-15T05:22:02.981Z,8.43
2023-01-15T05:24:32.108Z,7.00
2023-01-15T05:27:01.487Z,6.63
2023-01-15T05:29:30.775Z,7.22
2023-01-15T05:31:59.945Z,7.10
2023-01-15T05:34:29.092Z,6.72
2023-01-15T05:36:58.614Z,5.65
2023-01-15T05:39:27.749Z,6.55
2023-01-15T05:41:56.833Z,6.68
2023-01-15T05:44:31.476Z,7.43
2023-01-15T05:47:09.560Z,6.28
2023-01-15T05:49:38.961Z,6.28
2023-01-15T05:52:09.358Z,7.25
2023-01-15T05:54:38.699Z,7.40
2023-01-15T05:57:07.880Z,7.47
2023-01-15T05:59:37.024Z,7.00
2023-01-15T06:02:06.824Z,6.07
2023-01-15T06:04:36.011Z,7.43
2023-01-15T06:07:05.271Z,7.13
2023-01-15T06:09:34.415Z,6.35
2023-01-15T06:12:03.546Z,7.18
2023-01-15T06:14:32.743Z,6.63
2023-01-15T06:17:01.918Z,6.88
2023-01-15T06:19:31.243Z,6.47
2023-01-15T06:22:00.539Z,7.35
2023-01-15T06:24:29.657Z,6.80
2023-01-15T06:26:58.821Z,7.20
2023-01-15T06:29:28.884Z,6.78
2023-01-15T06:31:58.067Z,6.63
2023-01-15T06:34:27.159Z,6.57
2023-01-15T06:36:56.912Z,6.40
2023-01-15T06:39:26.075Z,7.20
2023-01-15T06:42:13.302Z,7.80
2023-01-15T06:45:00.977Z,7.03
2023-01-15T06:47:30.135Z,6.38
2023-01-15T06:50:00.497Z,8.57
2023-01-15T06:52:31.622Z,8.13
2023-01-15T06:55:00.775Z,7.15
2023-01-15T06:57:29.892Z,6.38
2023-01-15T06:59:59.087Z,6.80
2023-01-15T07:02:28.286Z,7.95
2023-01-15T07:04:57.459Z,10.70
2023-01-15T07:07:28.726Z,7.47
2023-01-15T07:09:58.112Z,5.75
2023-01-15T07:12:27.482Z,6.15
2023-01-15T07:14:56.710Z,6.88
2023-01-15T07:17:25.833Z,6.22
2023-01-15T07:19:54.942Z,5.78
2023-01-15T07:22:24.284Z,6.90
2023-01-15T07:24:53.763Z,7.47
2023-01-15T07:27:22.874Z,6.57
2023-01-15T07:29:53.139Z,6.60
2023-01-15T07:32:22.346Z,5.72
2023-01-15T07:34:52.220Z,6.15
2023-01-15T07:37:21.374Z,5.95
2023-01-15T07:39:50.509Z,6.45
2023-01-15T07:42:37.826Z,6.35
2023-01-15T07:45:26.734Z,6.60
2023-01-15T07:48:15.109Z,6.57
2023-01-15T07:50:44.193Z,5.78
2023-01-15T07:53:13.324Z,6.63
2023-01-15T07:55:42.544Z,5.70
2023-01-15T07:58:11.654Z,6.85
2023-01-15T08:00:41.931Z,5.45
2023-01-15T08:03:11.241Z,8.30
2023-01-15T08:05:40.364Z,6.20
2023-01-15T08:08:17.516Z,7.13
2023-01-15T08:11:05.167Z,6.83
2023-01-15T08:13:52.502Z,6.20
2023-01-15T08:16:21.811Z,6.35
2023-01-15T08:18:50.991Z,6.22
2023-01-15T08:21:20.587Z,6.07
2023-01-15T08:23:51.476Z,6.22
2023-01-15T08:26:20.622Z,6.63
2023-01-15T08:28:49.709Z,10.30
2023-01-15T08:31:18.852Z,7.53
2023-01-15T08:33:48.079Z,6.95
2023-01-15T08:36:18.971Z,5.90
2023-01-15T08:38:51.422Z,6.07
2023-01-15T08:41:20.673Z,6.50
2023-01-15T08:43:49.905Z,6.38
2023-01-15T08:46:19.578Z,5.97
2023-01-15T08:48:49.414Z,6.47
2023-01-15T08:51:18.770Z,6.32
2023-01-15T08:53:48.219Z,6.43
2023-01-15T08:56:21.122Z,5.90
2023-01-15T08:58:50.420Z,6.22
2023-01-15T09:01:19.762Z,5.95
2023-01-15T09:03:49.027Z,6.65
2023-01-15T09:06:18.301Z,5.75
2023-01-15T09:08:47.538Z,6.38
2023-01-15T09:11:16.793Z,6.35
2023-01-15T09:13:47.863Z,6.10
2023-01-15T09:16:18.338Z,7.00
2023-01-15T09:18:48.724Z,7.00
2023-01-15T09:21:17.993Z,6.22
2023-01-15T09:23:47.251Z,6.30
2023-01-15T09:26:36.755Z,5.72
2023-01-15T09:29:07.725Z,6.85
2023-01-15T09:31:37.139Z,5.50
2023-01-15T09:34:06.413Z,6.55
2023-01-15T09:36:39.774Z,6.63
2023-01-15T09:39:09.832Z,5.80
2023-01-15T09:42:26.412Z,5.28
2023-01-15T09:45:20.023Z,7.57
2023-01-15T09:48:18.165Z,6.10
2023-01-15T09:51:16.535Z,5.45
2023-01-15T09:54:14.420Z,5.60
2023-01-15T09:56:44.178Z,6.07
2023-01-15T09:59:38.960Z,6.05
2023-01-15T10:02:28.991Z,6.05
2023-01-15T10:05:26.076Z,6.82
2023-01-15T10:08:30.785Z,6.28
2023-01-15T10:11:50.163Z,6.47
2023-01-15T10:14:40.368Z,6.90
2023-01-15T10:17:41.409Z,8.43
2023-01-15T10:20:18.595Z,6.75
2023-01-15T10:23:00.019Z,7.33
2023-01-15T10:25:56.320Z,7.22
2023-01-15T10:28:37.512Z,8.25
2023-01-15T10:31:23.629Z,7.93
2023-01-15T10:35:21.512Z,10.20
2023-01-15T10:38:23.423Z,9.55
2023-01-15T10:41:07.816Z,10.07
2023-01-15T10:44:20.173Z,11.85
2023-01-15T10:47:01.524Z,11.43
2023-01-15T10:49:32.361Z,11.98
2023-01-15T10:52:38.627Z,12.80
2023-01-15T10:55:45.503Z,15.45
2023-01-15T10:58:17.647Z,15.50
2023-01-15T11:00:55.971Z,15.02
2023-01-15T11:03:40.407Z,13.55
2023-01-15T11:06:17.205Z,12.35
2023-01-15T11:09:09.910Z,10.70
2023-01-15T11:12:28.679Z,11.95
2023-01-15T11:15:16.111Z,10.32
2023-01-15T11:18:06.147Z,11.77
2023-01-15T11:20:51.143Z,16.52
2023-01-15T11:23:24.383Z,16.63
2023-01-15T11:25:58.905Z,15.85
2023-01-15T11:28:41.915Z,16.15
2023-01-15T11:31:13.381Z,17.17
2023-01-15T11:33:47.115Z,24.67
2023-01-15T11:36:30.400Z,16.73
2023-01-15T11:39:02.397Z,16.98
2023-01-15T11:41:53.889Z,14.60
2023-01-15T11:44:43.622Z,14.50
2023-01-15T11:47:38.887Z,14.70
2023-01-15T11:50:39.587Z,14.50
2023-01-15T11:53:20.509Z,14.43
2023-01-15T11:56:08.297Z,15.88
2023-01-15T11:59:01.330Z,14.55
2023-01-15T12:02:01.548Z,12.90
2023-01-15T12:04:55.170Z,14.15
2023-01-15T12:07:27.655Z,16.30
2023-01-15T12:10:15.993Z,16.70
2023-01-15T12:13:28.048Z,16.80
2023-01-15T12:16:14.593Z,16.83
2023-01-15T12:19:12.235Z,16.50
2023-01-15T12:22:08.895Z,18.42
2023-01-15T12:24:47.728Z,18.17
2023-01-15T12:27:53.228Z,15.88
2023-01-15T12:30:35.750Z,17.50
2023-01-15T12:33:34.048Z,16.92
2023-01-15T12:36:12.708Z,17.13
2023-01-15T12:38:51.620Z,17.42
2023-01-15T12:41:54.472Z,17.73
2023-01-15T12:45:11.844Z,19.00
2023-01-15T12:47:58.292Z,19.27
2023-01-15T12:50:56.013Z,17.92
2023-01-15T12:53:38.602Z,18.98
2023-01-15T12:56:23.470Z,19.55
2023-01-15T12:59:46.535Z,20.10
2023-01-15T13:02:29.673Z,17.63
2023-01-15T13:05:29.886Z,19.63
2023-01-15T13:08:20.820Z,30.95
2023-01-15T13:10:54.086Z,35.70
2023-01-15T13:13:30.331Z,38.50
2023-01-15T13:16:37.123Z,37.95
2023-01-15T13:19:47.452Z,33.10
2023-01-15T13:22:27.829Z,28.65
2023-01-15T13:25:09.125Z,24.90
2023-01-15T13:28:03.092Z,27.60
2023-01-15T13:31:07.931Z,28.23
2023-01-15T13:34:00.541Z,26.05
2023-01-15T13:36:45.638Z,29.50
2023-01-15T13:39:25.490Z,29.45
2023-01-15T13:42:32.002Z,27.13
2023-01-15T13:45:32.239Z,26.27
2023-01-15T13:48:14.289Z,28.58
2023-01-15T13:50:54.950Z,31.13
2023-01-15T13:53:39.473Z,29.17
2023-01-15T13:56:18.185Z,30.92
2023-01-15T13:59:06.713Z,31.00
2023-01-15T14:01:38.782Z,29.40
2023-01-15T14:04:17.594Z,30.67
2023-01-15T14:06:47.921Z,31.15
2023-01-15T14:09:26.275Z,28.70
2023-01-15T14:12:37.957Z,30.17
2023-01-15T14:15:34.981Z,28.42
2023-01-15T14:18:45.217Z,26.63
2023-01-15T14:21:49.190Z,25.38
2023-01-15T14:24:39.622Z,26.63
2023-01-15T14:27:50.689Z,26.92
2023-01-15T14:30:45.527Z,25.88
2023-01-15T14:33:41.711Z,24.40
2023-01-15T14:36:29.329Z,28.48
2023-01-15T14:39:05.332Z,26.30
2023-01-15T14:42:01.590Z,23.75
2023-01-15T14:44:34.716Z,23.65
2023-01-15T14:47:08.078Z,22.67
2023-01-15T14:49:50.786Z,22.58
2023-01-15T14:52:26.375Z,23.20
2023-01-15T14:54:57.012Z,22.25
2023-01-15T14:57:27.750Z,23.25
2023-01-15T15:00:06.303Z,22.25
2023-01-15T15:02:46.594Z,19.77
2023-01-15T15:05:22.090Z,18.10
2023-01-15T15:07:56.212Z,18.95
2023-01-15T15:10:35.796Z,18.95
2023-01-15T15:13:19.946Z,18.90
2023-01-15T15:16:09.588Z,19.15
2023-01-15T15:19:16.463Z,18.30
2023-01-15T15:21:49.509Z,17.97
2023-01-15T15:24:36.006Z,17.77
2023-01-15T15:27:26.122Z,17.55
2023-01-15T15:30:10.044Z,17.92
2023-01-15T15:32:42.187Z,18.10
2023-01-15T15:35:41.412Z,17.60
2023-01-15T15:38:20.878Z,17.88
2023-01-15T15:41:00.438Z,18.75
2023-01-15T15:44:13.930Z,19.35
2023-01-15T15:47:10.083Z,19.58
2023-01-15T15:49:43.455Z,19.33
2023-01-15T15:52:28.884Z,20.27
2023-01-15T15:55:08.250Z,21.92
2023-01-15T15:57:37.989Z,20.55
2023-01-15T16:00:19.661Z,20.50
2023-01-15T16:02:49.531Z,22.23
2023-01-15T16:05:25.154Z,21.73
2023-01-15T16:07:56.066Z,21.17
2023-01-15T16:10:35.592Z,21.58
2023-01-15T16:13:11.551Z,22.13
2023-01-15T16:15:44.024Z,21.05
2023-01-15T16:18:30.349Z,20.25
2023-01-15T16:21:00.481Z,21.63
2023-01-15T16:23:32.168Z,22.67
2023-01-15T16:26:25.092Z,21.77
2023-01-15T16:29:02.855Z,23.98
2023-01-15T16:31:38.285Z,25.52
2023-01-15T16:34:08.257Z,26.98
2023-01-15T16:36:46.395Z,29.20
2023-01-15T16:39:30.010Z,29.42
2023-01-15T16:42:03.119Z,30.27
2023-01-15T16:45:02.611Z,31.50
2023-01-15T16:47:36.289Z,33.42
2023-01-15T16:50:23.948Z,32.20
2023-01-15T16:52:56.367Z,32.67
2023-01-15T16:55:47.359Z,33.45
2023-01-15T16:58:23.117Z,32.50
2023-01-15T17:00:56.631Z,33.95
2023-01-15T17:03:29.096Z,34.33
2023-01-15T17:06:16.894Z,31.45
2023-01-15T17:08:54.857Z,33.90
2023-01-15T17:11:31.853Z,32.22
2023-01-15T17:14:27.811Z,31.33
2023-01-15T17:17:25.581Z,29.77
2023-01-15T17:19:58.250Z,29.75
2023-01-15T17:22:35.271Z,29.92
2023-01-15T17:25:21.747Z,32.05
2023-01-15T17:27:51.090Z,30.92
2023-01-15T17:30:20.622Z,31.77
2023-01-15T17:32:50.127Z,31.83
2023-01-15T17:35:22.049Z,33.30
2023-01-15T17:37:51.776Z,31.58
2023-01-15T17:40:21.770Z,33.42
2023-01-15T17:42:51.339Z,34.17
2023-01-15T17:45:29.978Z,34.08
2023-01-15T17:50:29.400Z,35.55
2023-01-15T17:52:58.603Z,34.10
2023-01-15T17:55:46.236Z,35.10
2023-01-15T17:58:35.319Z,35.50
2023-01-15T18:01:38.649Z,37.05
2023-01-15T18:04:39.899Z,36.22
2023-01-15T18:07:09.811Z,34.75
2023-01-15T18:09:40.103Z,34.05
2023-01-15T18:12:09.470Z,35.45
2023-01-15T18:14:38.765Z,32.55
2023-01-15T18:17:08.065Z,35.20
2023-01-15T18:19:37.239Z,33.60
2023-01-15T18:22:06.572Z,32.70
2023-01-15T18:24:35.785Z,33.75
2023-01-15T18:27:05.151Z,35.28
2023-01-15T18:29:37.001Z,35.83
2023-01-15T18:32:06.386Z,35.05
2023-01-15T18:34:35.549Z,36.72
2023-01-15T18:37:05.654Z,35.67
2023-01-15T18:39:36.642Z,35.13
2023-01-15T18:42:06.280Z,34.20
2023-01-15T18:44:53.737Z,35.92
2023-01-15T18:47:26.224Z,35.50
2023-01-15T18:49:56.751Z,36.22
2023-01-15T18:52:44.150Z,37.47
2023-01-15T18:55:13.485Z,36.58
2023-01-15T18:57:42.680Z,36.35
2023-01-15T19:00:13.323Z,36.53
2023-01-15T19:02:42.722Z,35.20
2023-01-15T19:05:14.010Z,36.50
2023-01-15T19:07:46.316Z,34.85
2023-01-15T19:10:18.375Z,36.15
2023-01-15T19:12:47.989Z,40.08
2023-01-15T19:15:40.064Z,39.10
2023-01-15T19:18:30.828Z,34.70
2023-01-15T19:21:00.096Z,35.17
2023-01-15T19:23:29.231Z,34.60
2023-01-15T19:25:58.376Z,35.67
2023-01-15T19:28:27.594Z,34.75
2023-01-15T19:31:15.042Z,33.42
2023-01-15T19:33:44.220Z,33.00
2023-01-15T19:36:13.723Z,32.67
2023-01-15T19:38:43.140Z,33.30
2023-01-15T19:41:34.088Z,33.35
2023-01-15T19:44:21.765Z,33.38
2023-01-15T19:47:09.489Z,33.03
2023-01-15T19:49:57.484Z,34.07
2023-01-15T19:52:38.964Z,33.75
2023-01-15T19:55:12.202Z,34.83
2023-01-15T19:57:42.791Z,33.67
2023-01-15T20:00:16.773Z,33.80
2023-01-15T20:02:47.623Z,32.92
2023-01-15T20:05:18.265Z,32.05
2023-01-15T20:07:47.564Z,34.47
2023-01-15T20:10:24.761Z,31.48
2023-01-15T20:13:12.644Z,33.63
2023-01-15T20:15:46.699Z,32.42
2023-01-15T20:18:16.044Z,32.55
2023-01-15T20:20:45.189Z,34.33
2023-01-15T20:23:15.553Z,32.63
2023-01-15T20:25:48.206Z,30.98
2023-01-15T20:28:17.618Z,33.95
2023-01-15T20:30:46.919Z,32.38
2023-01-15T20:33:16.059Z,30.85
2023-01-15T20:35:45.210Z,31.52
2023-01-15T20:38:14.394Z,33.03
2023-01-15T20:40:43.590Z,31.52
2023-01-15T20:43:31.108Z,32.35
2023-01-15T20:46:16.662Z,33.42
2023-01-15T20:49:03.885Z,31.77
2023-01-15T20:51:33.095Z,32.15
2023-01-15T20:54:02.327Z,32.50
2023-01-15T20:56:31.529Z,31.08
2023-01-15T20:59:00.691Z,31.08
2023-01-15T21:01:30.485Z,31.52
2023-01-15T21:03:59.759Z,32.08
2023-01-15T21:06:29.217Z,32.88
2023-01-15T21:08:58.517Z,30.52
2023-01-15T21:11:28.030Z,30.20
2023-01-15T21:13:57.406Z,30.67
2023-01-15T21:16:26.702Z,32.10
2023-01-15T21:18:55.903Z,32.15
2023-01-15T21:21:25.177Z,31.65
2023-01-15T21:23:54.475Z,30.55
2023-01-15T21:26:25.604Z,32.25
2023-01-15T21:28:58.163Z,35.20
2023-01-15T21:31:27.647Z,32.83
2023-01-15T21:33:57.964Z,34.28
2023-01-15T21:36:27.942Z,33.90
2023-01-15T21:38:59.786Z,34.17
2023-01-15T21:41:47.381Z,32.95
2023-01-15T21:44:32.737Z,31.33
2023-01-15T21:47:09.647Z,30.75
2023-01-15T21:49:39.301Z,29.73
2023-01-15T21:52:16.836Z,30.48
2023-01-15T21:54:47.373Z,29.42
2023-01-15T21:57:16.791Z,29.85
2023-01-15T21:59:46.296Z,28.90
2023-01-15T22:02:19.883Z,29.23
2023-01-15T22:04:49.671Z,28.23
2023-01-15T22:07:20.451Z,29.00
2023-01-15T22:09:49.560Z,29.02
2023-01-15T22:12:18.768Z,28.10
2023-01-15T22:14:48.202Z,28.77
2023-01-15T22:17:17.677Z,28.35
2023-01-15T22:19:46.752Z,27.60
2023-01-15T22:22:15.899Z,27.75
2023-01-15T22:24:45.025Z,27.40
2023-01-15T22:27:18.007Z,27.45
2023-01-15T22:29:47.167Z,26.80
2023-01-15T22:32:17.382Z,25.08
2023-01-15T22:34:48.597Z,25.65
2023-01-15T22:37:18.639Z,25.75
2023-01-15T22:39:48.103Z,26.15
2023-01-15T22:42:26.087Z,27.48
2023-01-15T22:45:00.760Z,30.05
2023-01-15T22:47:31.308Z,29.13
2023-01-15T22:50:00.471Z,28.60
2023-01-15T22:52:29.830Z,28.83
2023-01-15T22:54:59.077Z,28.85
2023-01-15T22:57:30.268Z,27.75
2023-01-15T22:59:59.927Z,28.15
2023-01-15T23:02:47.413Z,32.70
2023-01-15T23:05:16.650Z,28.02
2023-01-15T23:07:45.801Z,27.17
2023-01-15T23:10:16.098Z,26.17
2023-01-15T23:12:45.750Z,27.33
2023-01-15T23:15:16.990Z,26.23
2023-01-15T23:17:46.175Z,25.05
2023-01-15T23:20:15.921Z,25.88
2023-01-15T23:22:45.130Z,25.95
2023-01-15T23:25:14.266Z,25.63
2023-01-15T23:27:43.368Z,25.77
2023-01-15T23:30:13.582Z,26.23
2023-01-15T23:32:43.251Z,25.52
2023-01-15T23:35:12.645Z,24.35
2023-01-15T23:37:42.621Z,24.27
2023-01-15T23:40:12.720Z,24.88
2023-01-15T23:43:00.482Z,26.42
2023-01-15T23:45:47.956Z,30.23
2023-01-15T23:48:17.230Z,35.03
2023-01-15T23:50:46.375Z,33.42
2023-01-15T23:53:15.718Z,31.63
2023-01-15T23:55:45.011Z,35.13
2023-01-15T23:58:14.183Z,34.08
